createdAt,value
2018-09-25T00:02:15.330Z,1.40
2018-09-25T00:04:48.864Z,1.80
2018-09-25T00:07:22.411Z,1.47
2018-09-25T00:09:55.825Z,1.73
2018-09-25T00:12:29.276Z,2.17
2018-09-25T00:15:02.607Z,2.37
2018-09-25T00:17:36.037Z,1.60
2018-09-25T00:20:09.700Z,2.37
2018-09-25T00:22:43.261Z,1.63
2018-09-25T00:25:16.645Z,1.80
2018-09-25T00:27:50.170Z,1.80
2018-09-25T00:30:23.556Z,2.00
2018-09-25T00:32:57.136Z,2.00
2018-09-25T00:35:30.521Z,2.43
2018-09-25T00:38:03.971Z,2.50
2018-09-25T00:40:37.400Z,2.33
2018-09-25T00:43:10.885Z,3.00
2018-09-25T00:45:44.585Z,2.33
2018-09-25T00:48:18.204Z,2.10
2018-09-25T00:50:51.565Z,2.03
2018-09-25T00:53:25.090Z,2.57
2018-09-25T00:55:58.456Z,2.17
2018-09-25T00:58:31.966Z,2.13
2018-09-25T01:01:05.355Z,2.13
2018-09-25T01:03:38.812Z,1.90
2018-09-25T01:06:12.277Z,1.63
2018-09-25T01:08:45.824Z,1.77
2018-09-25T01:11:19.364Z,2.30
2018-09-25T01:13:52.934Z,2.53
2018-09-25T01:16:26.412Z,2.43
2018-09-25T01:18:59.774Z,2.67
2018-09-25T01:21:33.218Z,2.50
2018-09-25T01:24:06.590Z,3.60
2018-09-25T01:26:40.221Z,3.10
2018-09-25T01:29:13.640Z,2.53
2018-09-25T01:31:46.964Z,3.27
2018-09-25T01:34:20.510Z,2.93
2018-09-25T01:36:53.873Z,3.40
2018-09-25T01:39:27.340Z,3.30
2018-09-25T01:42:01.050Z,3.17
2018-09-25T01:44:34.615Z,3.20
2018-09-25T01:47:08.080Z,3.57
2018-09-25T01:49:41.549Z,4.80
2018-09-25T01:52:15.070Z,3.73
2018-09-25T01:54:48.838Z,4.00
2018-09-25T01:57:22.170Z,4.33
2018-09-25T01:59:55.827Z,4.47
2018-09-25T02:02:29.350Z,4.27
2018-09-25T02:05:02.916Z,4.97
2018-09-25T02:07:36.608Z,5.27
2018-09-25T02:10:10.230Z,4.20
2018-09-25T02:12:44.120Z,5.10
2018-09-25T02:15:17.665Z,5.13
2018-09-25T02:17:51.197Z,4.90
2018-09-25T02:20:24.843Z,5.30
2018-09-25T02:22:58.420Z,5.53
2018-09-25T02:25:31.742Z,4.57
2018-09-25T02:28:05.092Z,4.77
2018-09-25T02:30:38.661Z,4.57
2018-09-25T02:33:12.171Z,4.93
2018-09-25T02:35:45.576Z,5.57
2018-09-25T02:38:18.914Z,5.00
2018-09-25T02:40:52.727Z,5.10
2018-09-25T02:43:26.113Z,4.50
2018-09-25T02:45:59.605Z,4.57
2018-09-25T02:48:33.040Z,5.13
2018-09-25T02:51:06.580Z,5.67
2018-09-25T02:53:39.958Z,4.63
2018-09-25T02:56:13.325Z,6.00
2018-09-25T02:58:47.056Z,5.30
2018-09-25T03:01:26.987Z,4.93
2018-09-25T03:04:00.477Z,4.97
2018-09-25T03:06:34.055Z,4.60
2018-09-25T03:09:07.405Z,5.87
2018-09-25T03:11:41.108Z,7.00
2018-09-25T03:14:14.601Z,4.90
2018-09-25T03:16:47.985Z,4.97
2018-09-25T03:19:21.439Z,5.57
2018-09-25T03:21:55.172Z,5.73
2018-09-25T03:24:28.618Z,6.47
2018-09-25T03:27:02.472Z,5.30
2018-09-25T03:29:35.868Z,4.83
2018-09-25T03:32:09.502Z,5.30
2018-09-25T03:34:42.965Z,5.53
2018-09-25T03:37:16.520Z,6.13
2018-09-25T03:39:49.910Z,5.33
2018-09-25T03:42:23.360Z,5.57
2018-09-25T03:44:56.798Z,5.43
2018-09-25T03:47:30.206Z,4.87
2018-09-25T03:50:03.619Z,5.23
2018-09-25T03:52:37.140Z,5.37
2018-09-25T03:55:10.525Z,4.33
2018-09-25T03:57:44.120Z,6.10
2018-09-25T04:00:17.480Z,5.60
2018-09-25T04:02:50.901Z,5.23
2018-09-25T04:05:24.256Z,5.13
2018-09-25T04:07:57.782Z,5.53
2018-09-25T04:10:31.128Z,6.83
2018-09-25T04:13:04.552Z,6.70
2018-09-25T04:15:38.325Z,6.33
2018-09-25T04:18:12.120Z,6.80
2018-09-25T04:20:45.533Z,6.47
2018-09-25T04:23:19.576Z,5.70
2018-09-25T04:25:53.187Z,6.57
2018-09-25T04:28:26.664Z,6.43
2018-09-25T04:31:00.205Z,6.87
2018-09-25T04:33:33.881Z,6.47
2018-09-25T04:36:07.453Z,6.50
2018-09-25T04:38:40.907Z,7.13
2018-09-25T04:41:14.528Z,6.67
2018-09-25T04:43:48.232Z,7.07
2018-09-25T04:46:21.952Z,6.87
2018-09-25T04:48:55.524Z,6.70
2018-09-25T04:51:29.108Z,7.50
2018-09-25T04:54:02.635Z,6.90
2018-09-25T04:56:36.105Z,7.20
2018-09-25T04:59:09.873Z,6.30
2018-09-25T05:01:43.548Z,7.00
2018-09-25T05:04:17.186Z,7.17
2018-09-25T05:06:50.824Z,6.60
2018-09-25T05:09:24.301Z,6.47
2018-09-25T05:11:58.092Z,7.13
2018-09-25T05:14:31.601Z,7.93
2018-09-25T05:17:05.112Z,7.30
2018-09-25T05:19:38.711Z,7.03
2018-09-25T05:22:12.187Z,6.90
2018-09-25T05:24:45.668Z,6.80
2018-09-25T05:27:19.291Z,7.13
2018-09-25T05:29:53.010Z,6.40
2018-09-25T05:32:26.551Z,7.13
2018-09-25T05:35:00.091Z,7.07
2018-09-25T05:37:33.690Z,6.83
2018-09-25T05:40:07.257Z,7.07
2018-09-25T05:42:40.900Z,7.10
2018-09-25T05:45:14.441Z,6.80
2018-09-25T05:47:47.994Z,5.60
2018-09-25T05:50:21.731Z,5.70
2018-09-25T05:52:55.376Z,4.40
2018-09-25T05:55:29.149Z,3.27
2018-09-25T05:58:03.182Z,4.60
2018-09-25T06:00:36.931Z,4.27
2018-09-25T06:03:10.547Z,4.83
2018-09-25T06:05:44.264Z,4.10
2018-09-25T06:08:17.770Z,5.43
2018-09-25T06:10:51.362Z,4.47
2018-09-25T06:13:24.879Z,4.60
2018-09-25T06:15:58.562Z,4.43
2018-09-25T06:18:32.041Z,4.73
2018-09-25T06:21:05.761Z,4.33
2018-09-25T06:23:39.263Z,5.17
2018-09-25T06:26:13.064Z,4.53
2018-09-25T06:28:46.643Z,4.77
2018-09-25T06:31:20.301Z,3.93
2018-09-25T06:33:53.853Z,5.00
2018-09-25T06:36:27.596Z,4.40
2018-09-25T06:39:01.565Z,4.83
2018-09-25T06:41:35.185Z,5.07
2018-09-25T06:44:08.765Z,5.30
2018-09-25T06:46:42.422Z,5.57
2018-09-25T06:49:16.142Z,5.53
2018-09-25T06:51:49.781Z,5.83
2018-09-25T06:54:23.807Z,7.23
2018-09-25T06:56:57.311Z,6.73
2018-09-25T06:59:30.916Z,6.80
2018-09-25T07:02:04.476Z,7.37
2018-09-25T07:04:37.953Z,7.73
2018-09-25T07:07:11.793Z,7.13
2018-09-25T07:09:45.450Z,7.80
2018-09-25T07:12:19.560Z,8.73
2018-09-25T07:14:53.178Z,7.43
2018-09-25T07:17:27.320Z,7.47
2018-09-25T07:20:00.851Z,7.27
2018-09-25T07:22:34.472Z,7.53
2018-09-25T07:25:23.464Z,6.30
2018-09-25T07:30:50.396Z,5.83
2018-09-25T07:33:24.646Z,6.33
2018-09-25T07:35:58.748Z,6.27
2018-09-25T07:38:32.776Z,6.57
2018-09-25T07:41:06.589Z,6.17
2018-09-25T07:43:41.192Z,6.77
2018-09-25T07:46:14.930Z,5.10
2018-09-25T07:48:48.650Z,6.47
2018-09-25T07:51:22.361Z,6.20
2018-09-25T07:53:55.866Z,6.63
2018-09-25T07:56:30.241Z,6.40
2018-09-25T07:59:04.235Z,6.37
2018-09-25T08:01:37.789Z,6.73
2018-09-25T08:04:11.297Z,7.40
2018-09-25T08:06:45.310Z,6.03
2018-09-25T08:09:19.437Z,6.97
2018-09-25T08:11:53.121Z,7.40
2018-09-25T08:14:26.758Z,6.13
2018-09-25T08:17:00.460Z,6.47
2018-09-25T08:19:34.289Z,5.87
2018-09-25T08:22:07.717Z,5.80
2018-09-25T08:24:41.858Z,5.53
2018-09-25T08:27:15.538Z,5.47
2018-09-25T08:29:49.207Z,5.23
2018-09-25T08:32:23.145Z,5.20
2018-09-25T08:34:56.927Z,5.33
2018-09-25T08:37:30.739Z,5.73
2018-09-25T08:40:04.398Z,5.13
2018-09-25T08:42:38.190Z,5.83
2018-09-25T08:45:11.919Z,5.87
2018-09-25T08:47:45.472Z,5.77
2018-09-25T08:50:19.217Z,6.00
2018-09-25T08:52:52.658Z,5.87
2018-09-25T08:55:26.119Z,6.23
2018-09-25T08:57:59.735Z,5.57
2018-09-25T09:00:33.139Z,6.50
2018-09-25T09:03:06.937Z,5.63
2018-09-25T09:05:41.079Z,5.40
2018-09-25T09:08:14.851Z,6.07
2018-09-25T09:10:48.530Z,5.33
2018-09-25T09:13:22.311Z,5.60
2018-09-25T09:15:55.787Z,5.90
2018-09-25T09:18:29.901Z,6.27
2018-09-25T09:21:03.538Z,5.83
2018-09-25T09:23:37.169Z,5.50
2018-09-25T09:26:10.837Z,6.13
2018-09-25T09:28:44.462Z,7.27
2018-09-25T09:31:18.037Z,6.10
2018-09-25T09:33:51.625Z,5.87
2018-09-25T09:36:25.203Z,6.17
2018-09-25T09:38:58.777Z,5.40
2018-09-25T09:41:32.570Z,5.10
2018-09-25T09:44:06.097Z,6.13
2018-09-25T09:46:39.738Z,5.27
2018-09-25T09:49:13.537Z,5.03
2018-09-25T09:51:47.357Z,5.80
2018-09-25T09:54:21.109Z,5.17
2018-09-25T09:56:54.758Z,5.57
2018-09-25T09:59:28.425Z,5.40
2018-09-25T10:02:01.931Z,5.17
2018-09-25T10:04:35.397Z,4.47
2018-09-25T10:07:09.063Z,4.53
2018-09-25T10:09:42.856Z,4.40
2018-09-25T10:12:16.649Z,4.07
2018-09-25T10:14:50.269Z,3.97
2018-09-25T10:17:23.998Z,3.30
2018-09-25T10:19:57.877Z,3.50
2018-09-25T10:22:31.669Z,3.53
2018-09-25T10:25:05.337Z,3.63
2018-09-25T10:27:38.918Z,3.83
2018-09-25T10:30:12.918Z,3.33
2018-09-25T10:32:46.537Z,2.90
2018-09-25T10:35:20.877Z,2.87
2018-09-25T10:37:54.798Z,3.33
2018-09-25T10:40:28.237Z,3.20
2018-09-25T10:43:01.847Z,3.90
2018-09-25T10:45:35.457Z,2.77
2018-09-25T10:48:09.125Z,3.50
2018-09-25T10:50:42.618Z,3.43
2018-09-25T10:53:16.397Z,2.83
2018-09-25T10:55:50.207Z,2.70
2018-09-25T10:58:23.730Z,2.90
2018-09-25T11:00:57.457Z,2.60
2018-09-25T11:03:31.150Z,1.90
2018-09-25T11:06:05.010Z,2.60
2018-09-25T11:08:38.618Z,3.17
2018-09-25T11:11:12.170Z,2.20
2018-09-25T11:13:45.749Z,1.60
2018-09-25T11:16:19.530Z,1.63
2018-09-25T11:18:53.053Z,1.47
2018-09-25T11:21:26.798Z,1.40
2018-09-25T11:24:00.470Z,2.20
2018-09-25T11:26:34.190Z,1.90
2018-09-25T11:29:07.914Z,2.90
2018-09-25T11:31:41.549Z,1.73
2018-09-25T11:34:15.210Z,1.23
2018-09-25T11:36:48.930Z,1.40
2018-09-25T11:39:22.450Z,1.10
2018-09-25T11:41:56.170Z,1.30
2018-09-25T11:44:29.670Z,1.20
2018-09-25T11:47:03.364Z,0.93
2018-09-25T11:49:36.933Z,0.90
2018-09-25T11:52:10.646Z,0.87
2018-09-25T11:54:44.229Z,0.90
2018-09-25T11:57:17.970Z,1.00
2018-09-25T12:06:43.530Z,1.20
2018-09-25T12:09:17.071Z,0.93
2018-09-25T12:11:50.889Z,2.17
2018-09-25T12:14:24.569Z,4.53
2018-09-25T12:16:58.457Z,3.70
2018-09-25T12:19:31.898Z,1.00
2018-09-25T12:22:05.457Z,1.00
2018-09-25T12:24:39.138Z,0.90
2018-09-25T12:27:13.218Z,0.80
2018-09-25T12:29:48.277Z,0.80
2018-09-25T12:32:22.061Z,1.10
2018-09-25T12:34:55.657Z,0.90
2018-09-25T12:37:29.481Z,1.10
2018-09-25T12:40:03.157Z,0.80
2018-09-25T12:42:36.877Z,0.93
2018-09-25T12:45:10.660Z,1.07
2018-09-25T12:47:44.390Z,0.93
2018-09-25T12:50:17.906Z,0.83
2018-09-25T12:52:51.737Z,1.03
2018-09-25T12:55:25.237Z,0.90
2018-09-25T12:57:58.837Z,0.83
2018-09-25T13:00:32.509Z,0.80
2018-09-25T13:03:06.237Z,0.73
2018-09-25T13:05:40.037Z,1.40
2018-09-25T13:08:13.737Z,1.57
2018-09-25T13:10:47.277Z,0.60
2018-09-25T13:13:20.909Z,1.67
2018-09-25T13:15:54.582Z,0.80
2018-09-25T13:18:28.289Z,0.57
2018-09-25T13:21:01.930Z,1.13
2018-09-25T13:23:35.681Z,0.70
2018-09-25T13:26:10.090Z,1.10
2018-09-25T13:28:43.897Z,0.80
2018-09-25T13:31:17.733Z,1.00
2018-09-25T13:33:51.577Z,0.80
2018-09-25T13:36:25.198Z,0.90
2018-09-25T13:38:58.877Z,1.17
2018-09-25T13:41:32.509Z,1.10
2018-09-25T13:44:06.932Z,1.43
2018-09-25T13:46:40.429Z,1.10
2018-09-25T13:49:13.891Z,0.97
2018-09-25T13:51:47.390Z,0.97
2018-09-25T13:54:21.250Z,0.80
2018-09-25T13:56:55.050Z,0.80
2018-09-25T13:59:28.897Z,0.70
2018-09-25T14:02:03.814Z,0.97
2018-09-25T14:04:37.515Z,0.80
2018-09-25T14:07:11.238Z,0.87
2018-09-25T14:09:45.018Z,0.80
2018-09-25T14:12:18.677Z,0.87
2018-09-25T14:14:52.277Z,0.83
2018-09-25T14:17:25.889Z,0.80
2018-09-25T14:19:59.449Z,1.00
2018-09-25T14:22:33.177Z,0.73
2018-09-25T14:25:06.550Z,0.73
2018-09-25T14:27:40.225Z,0.80
2018-09-25T14:30:13.770Z,0.47
2018-09-25T14:32:47.237Z,1.60
2018-09-25T14:35:20.809Z,0.90
2018-09-25T14:37:54.409Z,1.10
2018-09-25T14:40:27.889Z,1.00
2018-09-25T14:43:01.761Z,0.73
2018-09-25T14:45:35.677Z,1.10
2018-09-25T14:48:09.197Z,0.80
2018-09-25T14:50:42.658Z,0.73
2018-09-25T14:53:16.408Z,0.80
2018-09-25T14:55:56.686Z,0.77
2018-09-25T14:58:30.235Z,0.83
2018-09-25T15:01:03.645Z,1.23
2018-09-25T15:03:37.185Z,1.00
2018-09-25T15:06:10.844Z,0.90
2018-09-25T15:08:44.612Z,0.90
2018-09-25T15:11:18.125Z,0.80
2018-09-25T15:13:51.664Z,0.87
2018-09-25T15:16:25.424Z,0.80
2018-09-25T15:18:59.240Z,0.90
2018-09-25T15:21:33.126Z,0.80
2018-09-25T15:24:06.720Z,0.90
2018-09-25T15:26:41.486Z,1.07
2018-09-25T15:29:15.492Z,0.60
2018-09-25T15:31:49.047Z,1.30
2018-09-25T15:34:22.908Z,1.33
2018-09-25T15:36:56.548Z,1.20
2018-09-25T15:39:30.186Z,1.00
2018-09-25T15:42:03.895Z,1.00
2018-09-25T15:44:37.552Z,0.80
2018-09-25T15:47:11.074Z,0.80
2018-09-25T15:49:44.672Z,0.93
2018-09-25T15:52:18.292Z,0.80
2018-09-25T15:54:52.112Z,0.90
2018-09-25T15:57:25.852Z,1.00
2018-09-25T15:59:59.433Z,0.90
2018-09-25T16:02:32.762Z,1.00
2018-09-25T16:05:06.250Z,1.00
2018-09-25T16:07:39.829Z,0.90
2018-09-25T16:10:13.621Z,1.33
2018-09-25T16:12:47.352Z,1.03
2018-09-25T16:15:20.953Z,0.83
2018-09-25T16:17:54.535Z,0.90
2018-09-25T16:20:28.005Z,0.90
2018-09-25T16:23:01.681Z,0.93
2018-09-25T16:25:35.186Z,1.10
2018-09-25T16:28:08.754Z,0.90
2018-09-25T16:30:42.273Z,1.33
2018-09-25T16:33:15.955Z,1.10
2018-09-25T16:35:49.607Z,1.17
2018-09-25T16:38:23.126Z,1.00
2018-09-25T16:40:56.721Z,1.03
2018-09-25T16:43:30.203Z,0.90
2018-09-25T16:46:05.188Z,1.13
2018-09-25T16:48:38.668Z,1.10
2018-09-25T16:51:12.148Z,1.30
2018-09-25T16:53:45.791Z,1.10
2018-09-25T16:56:20.115Z,1.20
2018-09-25T16:58:53.450Z,1.13
2018-09-25T17:01:26.936Z,0.97
2018-09-25T17:04:00.655Z,0.97
2018-09-25T17:06:34.829Z,1.10
2018-09-25T17:09:08.432Z,1.57
2018-09-25T17:11:42.254Z,1.20
2018-09-25T17:14:15.674Z,1.50
2018-09-25T17:16:49.214Z,1.20
2018-09-25T17:19:22.832Z,1.07
2018-09-25T17:21:56.431Z,1.20
2018-09-25T17:24:29.884Z,1.27
2018-09-25T17:27:03.573Z,1.30
2018-09-25T17:29:37.294Z,1.30
2018-09-25T17:32:10.912Z,1.27
2018-09-25T17:34:44.593Z,1.13
2018-09-25T17:37:18.118Z,1.20
2018-09-25T17:39:51.846Z,1.50
2018-09-25T17:42:25.608Z,1.57
2018-09-25T17:44:59.211Z,1.17
2018-09-25T17:47:32.818Z,1.30
2018-09-25T17:50:06.212Z,1.20
2018-09-25T17:52:39.549Z,1.20
2018-09-25T17:55:13.124Z,1.47
2018-09-25T17:57:46.638Z,4.47
2018-09-25T18:00:20.475Z,1.40
2018-09-25T18:02:54.408Z,1.83
2018-09-25T18:05:27.913Z,2.70
2018-09-25T18:08:01.666Z,3.00
2018-09-25T18:10:35.094Z,3.07
2018-09-25T18:13:08.562Z,2.40
2018-09-25T18:15:42.325Z,3.93
2018-09-25T18:18:15.750Z,2.63
2018-09-25T18:20:49.259Z,2.00
2018-09-25T18:23:22.750Z,1.37
2018-09-25T18:25:56.208Z,1.83
2018-09-25T18:28:29.888Z,1.83
2018-09-25T18:31:03.665Z,2.03
2018-09-25T18:33:37.503Z,1.87
2018-09-25T18:36:11.249Z,1.93
2018-09-25T18:38:45.008Z,1.50
2018-09-25T18:41:18.882Z,1.60
2018-09-25T18:43:53.702Z,2.13
2018-09-25T18:46:27.547Z,2.00
2018-09-25T18:49:01.159Z,1.83
2018-09-25T18:51:34.921Z,1.87
2018-09-25T18:54:08.709Z,2.00
2018-09-25T18:56:42.462Z,2.07
2018-09-25T18:59:16.175Z,1.83
2018-09-25T19:01:50.021Z,1.90
2018-09-25T19:04:24.770Z,1.90
2018-09-25T19:06:58.547Z,1.60
2018-09-25T19:09:32.406Z,2.03
2018-09-25T19:12:06.208Z,1.47
2018-09-25T19:14:40.047Z,1.80
2018-09-25T19:17:13.904Z,1.70
2018-09-25T19:19:47.793Z,1.90
2018-09-25T19:22:21.578Z,2.20
2018-09-25T19:24:55.462Z,2.13
2018-09-25T19:27:29.200Z,2.13
2018-09-25T19:30:03.217Z,2.03
2018-09-25T19:32:37.241Z,2.43
2018-09-25T19:35:11.327Z,2.10
2018-09-25T19:37:52.326Z,2.10
2018-09-25T19:40:27.502Z,2.37
2018-09-25T19:43:01.298Z,2.33
2018-09-25T19:45:35.171Z,2.60
2018-09-25T19:48:08.917Z,2.63
2018-09-25T19:50:42.663Z,2.00
2018-09-25T19:53:16.618Z,2.10
2018-09-25T19:55:51.570Z,2.00
2018-09-25T19:58:25.536Z,2.30
2018-09-25T20:00:59.182Z,2.50
2018-09-25T20:03:33.135Z,2.70
2018-09-25T20:06:06.940Z,2.50
2018-09-25T20:08:40.837Z,2.63
2018-09-25T20:11:14.737Z,2.60
2018-09-25T20:13:48.412Z,2.53
2018-09-25T20:16:22.141Z,2.50
2018-09-25T20:18:55.996Z,2.23
2018-09-25T20:21:29.781Z,3.10
2018-09-25T20:24:03.728Z,2.10
2018-09-25T20:26:37.574Z,2.30
2018-09-25T20:29:11.849Z,2.57
2018-09-25T20:31:45.536Z,2.73
2018-09-25T20:34:19.501Z,1.80
2018-09-25T20:36:53.286Z,1.93
2018-09-25T20:39:27.058Z,2.03
2018-09-25T20:42:00.937Z,1.77
2018-09-25T20:44:34.702Z,2.30
2018-09-25T20:47:08.197Z,1.67
2018-09-25T20:49:42.034Z,1.70
2018-09-25T20:52:15.468Z,1.87
2018-09-25T20:54:48.977Z,1.40
2018-09-25T20:57:22.443Z,1.70
2018-09-25T20:59:55.934Z,2.07
2018-09-25T21:02:29.410Z,1.63
2018-09-25T21:05:02.845Z,1.70
2018-09-25T21:07:36.316Z,1.50
2018-09-25T21:10:09.857Z,1.60
2018-09-25T21:12:43.252Z,1.90
2018-09-25T21:15:16.849Z,1.53
2018-09-25T21:17:50.320Z,2.20
2018-09-25T21:20:23.893Z,1.80
2018-09-25T21:22:57.305Z,1.77
2018-09-25T21:25:30.767Z,2.17
2018-09-25T21:28:04.230Z,2.37
2018-09-25T21:30:37.785Z,2.43
2018-09-25T21:33:11.381Z,3.13
2018-09-25T21:35:45.218Z,2.50
2018-09-25T21:38:18.925Z,2.63
2018-09-25T21:40:52.580Z,2.53
2018-09-25T21:43:25.981Z,2.30
2018-09-25T21:45:59.360Z,2.50
2018-09-25T21:48:32.904Z,2.13
2018-09-25T21:51:06.358Z,2.80
2018-09-25T21:53:39.692Z,2.20
2018-09-25T21:56:13.101Z,2.03
2018-09-25T21:58:46.461Z,1.93
2018-09-25T22:01:19.799Z,1.80
2018-09-25T22:03:53.244Z,2.47
2018-09-25T22:06:26.796Z,1.87
2018-09-25T22:09:00.262Z,2.00
2018-09-25T22:11:33.703Z,1.73
2018-09-25T22:14:07.176Z,1.60
2018-09-25T22:16:40.803Z,1.40
2018-09-25T22:19:14.161Z,1.90
2018-09-25T22:21:47.606Z,1.80
2018-09-25T22:24:20.968Z,1.33
2018-09-25T22:26:54.508Z,1.47
2018-09-25T22:29:27.896Z,1.47
2018-09-25T22:32:01.356Z,1.30
2018-09-25T22:34:34.756Z,1.40
2018-09-25T22:37:08.258Z,1.40
2018-09-25T22:39:41.925Z,1.47
2018-09-25T22:42:15.461Z,1.60
2018-09-25T22:44:49.025Z,1.70
2018-09-25T22:47:22.495Z,1.60
2018-09-25T22:49:55.965Z,1.63
2018-09-25T22:52:29.499Z,1.40
2018-09-25T22:55:02.981Z,1.23
2018-09-25T22:57:36.495Z,1.40
2018-09-25T23:00:09.941Z,1.37
2018-09-25T23:02:43.420Z,1.37
2018-09-25T23:05:17.134Z,1.53
2018-09-25T23:07:50.570Z,1.57
2018-09-25T23:10:23.955Z,1.77
2018-09-25T23:12:57.610Z,1.50
2018-09-25T23:15:31.028Z,1.40
2018-09-25T23:18:04.460Z,1.40
2018-09-25T23:20:37.825Z,1.67
2018-09-25T23:23:11.285Z,2.47
2018-09-25T23:25:44.703Z,1.80
2018-09-25T23:28:18.338Z,2.20
2018-09-25T23:30:51.839Z,2.07
2018-09-25T23:33:25.260Z,2.30
2018-09-25T23:35:58.478Z,2.30
2018-09-25T23:38:32.120Z,3.33
2018-09-25T23:41:23.436Z,2.60
2018-09-25T23:44:31.590Z,2.77
2018-09-25T23:47:08.560Z,2.73
2018-09-25T23:49:42.030Z,2.63
2018-09-25T23:52:44.241Z,2.40
2018-09-25T23:55:17.705Z,2.40
2018-09-25T23:57:48.220Z,1.67
